createdAt,value
2017-10-25T06:20:03.794Z,97.80
2017-10-25T06:22:24.245Z,96.40
2017-10-25T06:24:25.209Z,96.30
2017-10-25T06:26:26.349Z,96.40
2017-10-25T06:33:32.644Z,96.60
2017-10-25T06:35:33.726Z,96.60
2017-10-25T06:37:56.866Z,96.80
2017-10-25T06:39:57.912Z,96.80
2017-10-25T06:41:59.030Z,96.60
2017-10-25T06:44:00.140Z,96.70
2017-10-25T06:46:01.237Z,96.60
2017-10-25T06:48:16.913Z,96.50
2017-10-25T07:12:55.287Z,96.00
2017-10-25T07:14:56.695Z,95.50
2017-10-25T07:16:59.097Z,95.40
2017-10-25T07:19:15.406Z,95.40
2017-10-25T07:21:16.605Z,95.40
2017-10-25T07:23:22.886Z,95.20
2017-10-25T07:25:24.987Z,94.60
2017-10-25T07:27:31.810Z,94.70
2017-10-25T07:29:33.020Z,94.50
2017-10-25T07:31:38.712Z,94.60
2017-10-25T07:33:39.916Z,94.00
2017-10-25T07:38:14.207Z,93.60
2017-10-25T07:40:15.245Z,93.00
2017-10-25T07:42:16.286Z,93.50
2017-10-25T07:44:22.143Z,93.00
2017-10-25T07:46:24.365Z,93.00
2017-10-25T07:48:27.544Z,92.60
2017-10-25T07:50:28.794Z,92.80
2017-10-25T07:52:29.802Z,92.00
2017-10-25T07:54:46.509Z,92.90
2017-10-25T07:56:49.161Z,92.20
2017-10-25T07:58:50.316Z,92.50
2017-10-25T08:00:51.366Z,92.70
2017-10-25T08:02:52.389Z,92.70
2017-10-25T08:04:53.459Z,92.30
2017-10-25T08:06:54.561Z,92.50
2017-10-25T08:14:10.856Z,92.40
2017-10-25T08:16:11.907Z,91.90
2017-10-25T08:23:12.903Z,90.60
2017-10-25T08:25:13.941Z,90.30
2017-10-25T08:29:53.829Z,88.60
2017-10-25T08:31:54.919Z,88.50
2017-10-25T08:41:49.716Z,85.00
2017-10-25T08:46:29.623Z,83.10
2017-10-25T08:48:30.645Z,84.20
2017-10-25T08:50:31.745Z,82.80
2017-10-25T08:52:38.891Z,83.10
2017-10-25T08:54:40.056Z,85.00
2017-10-25T08:56:41.153Z,84.80
2017-10-25T08:58:42.279Z,82.60
2017-10-25T09:00:43.268Z,82.40
2017-10-25T09:02:51.079Z,80.90
2017-10-25T09:10:08.718Z,80.50
2017-10-25T09:17:25.464Z,77.50
2017-10-25T09:24:20.197Z,77.90
2017-10-25T09:26:29.714Z,78.00
2017-10-25T09:31:01.352Z,76.50
2017-10-25T09:47:51.180Z,72.20
2017-10-25T09:49:55.613Z,70.90
2017-10-25T09:51:57.234Z,71.60
2017-10-25T10:05:46.520Z,68.80
2017-10-25T10:07:47.473Z,68.70
2017-10-25T10:09:48.420Z,64.00
2017-10-25T10:11:49.681Z,61.40
2017-10-25T10:13:50.639Z,63.10
2017-10-25T10:15:51.625Z,61.40
2017-10-25T10:20:31.801Z,57.60
2017-10-25T10:22:37.172Z,62.20
2017-10-25T10:24:52.090Z,61.10
2017-10-25T10:29:20.824Z,67.20
2017-10-25T10:31:23.590Z,67.70
2017-10-25T10:33:26.067Z,65.90
2017-10-25T10:35:48.610Z,68.10
2017-10-25T10:40:26.940Z,68.80
2017-10-25T10:45:17.201Z,70.30
2017-10-25T10:58:35.753Z,73.20
2017-10-25T11:00:40.190Z,72.20
2017-10-25T11:02:42.556Z,73.40
2017-10-25T11:04:46.764Z,73.20
2017-10-25T11:06:49.529Z,73.10
2017-10-25T11:11:19.340Z,70.70
2017-10-25T11:13:20.636Z,72.20
2017-10-25T11:15:35.645Z,73.40
2017-10-25T11:17:36.962Z,73.20
2017-10-25T11:19:38.119Z,74.20
2017-10-25T11:21:39.227Z,76.10
2017-10-25T11:23:40.401Z,75.00
2017-10-25T11:25:42.267Z,73.70
2017-10-25T11:27:44.025Z,75.40
2017-10-25T11:29:45.269Z,75.70
2017-10-25T11:32:18.449Z,74.70
2017-10-25T11:34:22.591Z,75.30
2017-10-25T11:36:26.610Z,72.20
2017-10-25T11:38:27.775Z,73.20
2017-10-25T11:40:52.352Z,74.70
2017-10-25T11:45:20.615Z,74.80
2017-10-25T11:49:48.597Z,72.20
2017-10-25T11:51:50.236Z,71.40
2017-10-25T11:53:51.373Z,71.90
2017-10-25T11:55:53.224Z,73.10
2017-10-25T11:57:54.816Z,74.50
2017-10-25T11:59:56.241Z,72.00
2017-10-25T12:01:57.521Z,74.40
2017-10-25T12:04:18.040Z,74.30
2017-10-25T12:06:19.153Z,74.40
2017-10-25T12:08:21.827Z,74.00
2017-10-25T12:10:23.037Z,75.70
2017-10-25T12:12:24.158Z,76.50
2017-10-25T12:16:35.846Z,77.70
2017-10-25T12:18:37.048Z,78.50
2017-10-25T12:20:38.160Z,78.30
2017-10-25T12:22:41.541Z,77.70
2017-10-25T12:24:47.673Z,77.00
2017-10-25T12:29:26.535Z,78.40
2017-10-25T12:31:32.644Z,77.70
2017-10-25T12:33:33.867Z,77.60
2017-10-25T12:35:37.967Z,78.40
2017-10-25T12:39:59.626Z,75.10
2017-10-25T12:42:11.050Z,75.70
2017-10-25T12:44:30.330Z,75.60
2017-10-25T12:46:31.906Z,77.10
2017-10-25T12:48:43.160Z,78.50
2017-10-25T12:50:44.279Z,80.30
2017-10-25T12:52:45.440Z,82.20
2017-10-25T12:54:46.613Z,84.40
2017-10-25T12:56:47.941Z,85.70
2017-10-25T12:58:49.176Z,86.70
2017-10-25T13:00:52.007Z,86.40
2017-10-25T13:02:55.958Z,86.40
2017-10-25T13:04:57.518Z,86.20
2017-10-25T13:07:01.933Z,86.60
2017-10-25T13:09:03.161Z,86.80
2017-10-25T13:11:05.216Z,88.60
2017-10-25T13:13:08.611Z,89.40
2017-10-25T13:15:10.845Z,87.80
2017-10-25T13:17:14.353Z,88.60
2017-10-25T13:19:15.562Z,89.20
2017-10-25T13:21:23.478Z,89.90
2017-10-25T13:23:38.191Z,90.00
2017-10-25T13:25:47.766Z,89.20
2017-10-25T13:27:49.035Z,90.00
2017-10-25T13:29:50.117Z,90.30
2017-10-25T13:31:51.233Z,90.70
2017-10-25T13:33:52.447Z,90.90
2017-10-25T13:35:54.445Z,91.00
2017-10-25T13:38:13.005Z,91.40
2017-10-25T13:42:46.417Z,92.60
2017-10-25T13:44:47.658Z,92.80
2017-10-25T13:46:54.075Z,93.50
2017-10-25T13:48:55.231Z,93.90
2017-10-25T13:50:56.675Z,94.10
2017-10-25T13:55:32.698Z,94.50
2017-10-25T13:57:33.919Z,94.80
2017-10-25T13:59:55.517Z,94.80
2017-10-25T14:01:56.657Z,95.00
2017-10-25T14:03:58.571Z,95.10
2017-10-25T14:06:01.885Z,95.20
2017-10-25T14:08:02.987Z,95.20
2017-10-25T14:10:04.009Z,95.20
2017-10-25T14:12:06.261Z,95.40
2017-10-25T14:14:08.378Z,95.60
2017-10-25T14:16:35.090Z,95.90
2017-10-25T14:18:36.819Z,95.80
2017-10-25T14:20:37.899Z,95.90
2017-10-25T14:22:39.617Z,96.00
2017-10-25T14:24:40.642Z,95.90
2017-10-25T14:29:05.148Z,96.20
2017-10-25T14:31:06.543Z,96.40
2017-10-25T14:33:10.101Z,96.30
2017-10-25T14:43:10.528Z,97.00
2017-10-25T14:50:11.770Z,97.10
2017-10-25T14:52:33.267Z,97.10
2017-10-25T14:54:38.003Z,97.10
2017-10-25T15:04:31.637Z,96.90
2017-10-25T15:06:36.221Z,96.30
2017-10-25T15:23:50.633Z,96.40
2017-10-25T15:30:54.943Z,96.30
2017-10-25T15:35:27.731Z,96.30
2017-10-25T15:45:15.199Z,96.50
2017-10-25T15:59:26.463Z,96.30
2017-10-25T16:01:27.893Z,96.10
2017-10-25T16:11:03.540Z,96.20
2017-10-25T18:06:56.639Z,97.20
2017-10-25T18:09:00.875Z,97.30
2017-10-25T18:11:02.856Z,97.30
2017-10-25T18:13:03.916Z,97.30
2017-10-25T18:17:18.388Z,97.30
2017-10-25T18:19:19.413Z,97.40
2017-10-25T18:21:20.515Z,97.40
2017-10-25T18:23:22.077Z,97.40
2017-10-25T18:25:23.482Z,97.30
2017-10-25T18:27:24.614Z,97.30
2017-10-25T18:29:25.795Z,97.30
2017-10-25T18:31:26.848Z,97.30
2017-10-25T18:33:27.916Z,97.20
2017-10-25T18:35:40.245Z,97.20
2017-10-25T18:40:09.825Z,97.20
2017-10-25T18:42:12.025Z,97.60
2017-10-25T18:46:49.669Z,97.20
2017-10-25T18:48:51.612Z,97.30
2017-10-25T18:50:52.737Z,97.20
2017-10-25T18:55:42.050Z,97.20
2017-10-25T18:57:44.760Z,97.20
2017-10-25T19:00:03.383Z,97.40
2017-10-25T19:07:21.656Z,97.50
2017-10-25T19:14:28.430Z,97.60
2017-10-25T19:16:31.341Z,97.60
2017-10-25T19:18:32.531Z,97.50
2017-10-25T19:20:33.684Z,97.80
2017-10-25T19:22:34.710Z,97.70
2017-10-25T19:24:35.802Z,97.80
2017-10-25T19:31:52.767Z,97.80
2017-10-25T19:41:21.337Z,97.70
2017-10-25T19:45:50.090Z,97.60
2017-10-25T19:47:51.094Z,97.60
2017-10-25T19:50:07.118Z,97.60
2017-10-25T20:15:21.375Z,97.60
2017-10-25T20:19:52.021Z,97.60
2017-10-25T20:21:53.190Z,97.90
2017-10-25T20:24:00.064Z,97.60
2017-10-25T20:26:06.088Z,97.50
2017-10-25T20:30:31.020Z,97.60
2017-10-25T20:32:34.381Z,97.90
2017-10-25T20:34:36.789Z,97.60
2017-10-25T20:36:37.877Z,97.70
2017-10-25T20:38:39.572Z,97.70
2017-10-25T20:40:42.905Z,97.60
2017-10-25T20:43:04.675Z,97.40
2017-10-25T20:47:33.394Z,97.60
2017-10-25T20:57:07.581Z,97.80
2017-10-25T21:08:54.506Z,97.70
2017-10-25T21:16:26.068Z,97.60
2017-10-25T21:18:27.067Z,97.70
2017-10-25T21:20:29.980Z,97.70
2017-10-25T21:27:28.285Z,97.90
2017-10-25T21:29:44.517Z,97.50
2017-10-25T21:34:13.096Z,97.00
2017-10-25T21:41:14.800Z,96.10
2017-10-25T21:48:24.045Z,96.00
2017-10-25T21:50:25.169Z,96.00
2017-10-25T21:52:33.849Z,96.20
2017-10-25T21:55:04.268Z,96.30
2017-10-25T22:02:09.941Z,96.30
2017-10-25T22:09:15.375Z,96.70
2017-10-25T22:11:16.431Z,96.80
2017-10-25T22:16:03.508Z,96.90
2017-10-25T22:20:42.041Z,97.00
2017-10-25T22:22:43.036Z,97.10
2017-10-25T22:24:44.071Z,97.10
2017-10-25T22:26:46.154Z,97.20
2017-10-25T22:31:39.528Z,97.50
2017-10-25T22:33:40.725Z,97.80
2017-10-25T22:35:41.784Z,97.80
2017-10-25T22:43:03.616Z,98.10
2017-10-25T22:45:04.758Z,97.60
2017-10-25T22:47:07.908Z,97.60
2017-10-25T22:59:31.811Z,98.00
2017-10-25T23:06:51.625Z,97.70
2017-10-25T23:08:52.863Z,97.70
2017-10-25T23:10:54.049Z,97.60
2017-10-25T23:15:23.043Z,97.70
2017-10-25T23:17:24.607Z,98.00
2017-10-25T23:29:55.480Z,97.80
2017-10-25T23:31:57.621Z,97.80
2017-10-25T23:34:05.844Z,97.70
2017-10-25T23:38:39.925Z,97.70
2017-10-25T23:41:04.963Z,97.70
2017-10-25T23:45:38.574Z,97.70
2017-10-25T23:52:56.209Z,97.80
2017-10-25T23:57:37.812Z,97.90
2017-10-25T23:59:40.840Z,98.00
